createdAt,value
2023-01-15T00:02:13.115Z,9.84
2023-01-15T00:04:43.012Z,9.79
2023-01-15T00:07:12.853Z,9.68
2023-01-15T00:09:45.405Z,9.57
2023-01-15T00:12:15.157Z,9.52
2023-01-15T00:14:45.779Z,9.44
2023-01-15T00:17:18.049Z,9.40
2023-01-15T00:19:49.845Z,9.36
2023-01-15T00:22:19.644Z,9.34
2023-01-15T00:25:07.499Z,9.31
2023-01-15T00:27:46.053Z,9.31
2023-01-15T00:30:18.977Z,9.28
2023-01-15T00:32:50.914Z,9.22
2023-01-15T00:35:24.423Z,9.23
2023-01-15T00:37:54.757Z,9.24
2023-01-15T00:40:27.082Z,9.27
2023-01-15T00:42:56.847Z,9.28
2023-01-15T00:45:28.255Z,9.29
2023-01-15T00:47:58.087Z,9.22
2023-01-15T00:50:27.833Z,9.18
2023-01-15T00:52:57.575Z,9.16
2023-01-15T00:55:29.961Z,9.17
2023-01-15T00:57:59.683Z,9.10
2023-01-15T01:00:31.872Z,9.08
2023-01-15T01:03:03.702Z,9.00
2023-01-15T01:05:37.901Z,9.02
2023-01-15T01:08:10.740Z,9.01
2023-01-15T01:10:43.257Z,8.98
2023-01-15T01:13:13.262Z,8.99
2023-01-15T01:15:43.113Z,8.95
2023-01-15T01:18:12.865Z,8.92
2023-01-15T01:20:42.643Z,8.92
2023-01-15T01:23:14.479Z,8.89
2023-01-15T01:25:46.917Z,8.88
2023-01-15T01:28:16.713Z,8.93
2023-01-15T01:30:46.481Z,8.94
2023-01-15T01:33:16.956Z,8.94
2023-01-15T01:35:51.624Z,8.95
2023-01-15T01:38:21.451Z,8.93
2023-01-15T01:40:56.185Z,8.89
2023-01-15T01:43:28.571Z,8.90
2023-01-15T01:45:59.021Z,8.85
2023-01-15T01:48:37.051Z,8.83
2023-01-15T01:51:19.494Z,8.80
2023-01-15T01:53:52.453Z,8.76
2023-01-15T01:56:25.691Z,8.72
2023-01-15T01:58:58.375Z,8.70
2023-01-15T02:01:29.270Z,8.70
2023-01-15T02:03:59.955Z,8.72
2023-01-15T02:06:31.026Z,8.72
2023-01-15T02:09:00.835Z,8.69
2023-01-15T02:11:36.153Z,8.71
2023-01-15T02:14:13.553Z,8.67
2023-01-15T02:16:49.174Z,8.68
2023-01-15T02:19:32.904Z,8.68
2023-01-15T02:22:13.375Z,8.69
2023-01-15T02:24:58.266Z,8.69
2023-01-15T02:27:31.173Z,8.69
2023-01-15T02:30:07.033Z,8.72
2023-01-15T02:32:43.513Z,8.67
2023-01-15T02:35:20.486Z,8.66
2023-01-15T02:37:54.590Z,8.64
2023-01-15T02:40:29.176Z,8.61
2023-01-15T02:43:02.614Z,8.54
2023-01-15T02:45:35.029Z,8.58
2023-01-15T02:48:10.016Z,8.59
2023-01-15T02:50:42.626Z,8.54
2023-01-15T02:53:16.505Z,8.53
2023-01-15T02:55:49.901Z,8.53
2023-01-15T02:58:26.383Z,8.52
2023-01-15T03:00:59.298Z,8.46
2023-01-15T03:03:43.744Z,8.41
2023-01-15T03:06:19.761Z,8.45
2023-01-15T03:08:52.039Z,8.43
2023-01-15T03:11:23.096Z,8.44
2023-01-15T03:14:04.059Z,8.45
2023-01-15T03:16:36.055Z,8.51
2023-01-15T03:19:14.745Z,8.55
2023-01-15T03:21:52.585Z,8.50
2023-01-15T03:24:27.971Z,8.53
2023-01-15T03:26:57.991Z,8.52
2023-01-15T03:29:33.591Z,8.47
2023-01-15T03:32:04.147Z,8.47
2023-01-15T03:34:39.771Z,8.44
2023-01-15T03:37:11.835Z,8.45
2023-01-15T03:39:42.219Z,8.40
2023-01-15T03:42:21.303Z,8.34
2023-01-15T03:45:00.053Z,8.36
2023-01-15T03:47:42.194Z,8.31
2023-01-15T03:50:21.681Z,8.33
2023-01-15T03:53:08.343Z,8.31
2023-01-15T03:55:48.388Z,8.32
2023-01-15T03:58:22.709Z,8.32
2023-01-15T04:00:58.602Z,8.31
2023-01-15T04:03:30.709Z,8.28
2023-01-15T04:06:03.990Z,8.32
2023-01-15T04:08:39.668Z,8.36
2023-01-15T04:11:11.503Z,8.37
2023-01-15T04:13:41.245Z,8.40
2023-01-15T04:16:14.146Z,8.40
2023-01-15T04:18:43.850Z,8.42
2023-01-15T04:21:13.584Z,8.39
2023-01-15T04:23:44.496Z,8.37
2023-01-15T04:26:14.314Z,8.36
2023-01-15T04:28:48.130Z,8.35
2023-01-15T04:31:20.672Z,8.31
2023-01-15T04:33:50.438Z,8.31
2023-01-15T04:36:20.187Z,8.28
2023-01-15T04:38:51.277Z,8.22
2023-01-15T04:41:33.407Z,8.20
2023-01-15T04:44:11.800Z,8.21
2023-01-15T04:46:47.972Z,8.18
2023-01-15T04:49:20.070Z,8.15
2023-01-15T04:51:49.854Z,8.18
2023-01-15T04:54:22.226Z,8.16
2023-01-15T04:56:54.231Z,8.14
2023-01-15T04:59:26.433Z,8.18
2023-01-15T05:02:05.085Z,8.21
2023-01-15T05:04:39.514Z,8.21
2023-01-15T05:07:09.363Z,8.25
2023-01-15T05:09:39.136Z,8.26
2023-01-15T05:12:09.354Z,8.21
2023-01-15T05:14:39.078Z,8.21
2023-01-15T05:17:13.520Z,8.19
2023-01-15T05:19:43.526Z,8.20
2023-01-15T05:22:13.375Z,8.17
2023-01-15T05:24:44.412Z,8.17
2023-01-15T05:27:14.183Z,8.19
2023-01-15T05:29:43.934Z,8.18
2023-01-15T05:32:16.409Z,8.14
2023-01-15T05:34:46.508Z,8.12
2023-01-15T05:37:16.312Z,8.15
2023-01-15T05:39:46.049Z,8.12
2023-01-15T05:42:16.407Z,8.11
2023-01-15T05:44:46.332Z,8.10
2023-01-15T05:47:18.683Z,8.08
2023-01-15T05:49:50.939Z,8.11
2023-01-15T05:52:22.616Z,8.08
2023-01-15T05:54:55.312Z,8.14
2023-01-15T05:57:25.055Z,8.13
2023-01-15T05:59:55.582Z,8.16
2023-01-15T06:02:27.943Z,8.15
2023-01-15T06:04:57.643Z,8.15
2023-01-15T06:07:27.432Z,8.14
2023-01-15T06:09:57.176Z,8.15
2023-01-15T06:12:26.873Z,8.08
2023-01-15T06:14:56.587Z,8.10
2023-01-15T06:17:30.140Z,8.08
2023-01-15T06:19:59.848Z,8.09
2023-01-15T06:22:29.984Z,8.09
2023-01-15T06:25:01.783Z,8.10
2023-01-15T06:27:31.604Z,8.09
2023-01-15T06:30:03.641Z,8.07
2023-01-15T06:32:35.947Z,8.05
2023-01-15T06:35:05.659Z,8.04
2023-01-15T06:37:35.616Z,8.03
2023-01-15T06:40:05.483Z,8.00
2023-01-15T06:42:47.723Z,8.02
2023-01-15T06:45:29.978Z,8.05
2023-01-15T06:48:02.448Z,8.05
2023-01-15T06:50:32.264Z,8.04
2023-01-15T06:53:01.978Z,8.05
2023-01-15T06:55:31.716Z,8.09
2023-01-15T06:58:01.425Z,8.06
2023-01-15T07:00:33.787Z,8.06
2023-01-15T07:03:08.991Z,8.03
2023-01-15T07:05:41.535Z,8.03
2023-01-15T07:08:11.328Z,8.03
2023-01-15T07:10:42.989Z,7.98
2023-01-15T07:13:13.338Z,7.98
2023-01-15T07:15:43.057Z,7.97
2023-01-15T07:18:15.418Z,7.90
2023-01-15T07:20:45.180Z,7.89
2023-01-15T07:23:16.718Z,7.91
2023-01-15T07:25:46.521Z,7.87
2023-01-15T07:28:16.279Z,7.83
2023-01-15T07:30:45.999Z,7.87
2023-01-15T07:33:18.369Z,7.84
2023-01-15T07:35:48.103Z,7.86
2023-01-15T07:38:17.794Z,7.84
2023-01-15T07:41:07.502Z,7.85
2023-01-15T07:43:49.652Z,7.85
2023-01-15T07:46:31.728Z,7.88
2023-01-15T07:49:16.452Z,7.93
2023-01-15T07:51:46.170Z,7.90
2023-01-15T07:54:15.893Z,7.91
2023-01-15T07:56:45.635Z,7.90
2023-01-15T07:59:15.796Z,7.91
2023-01-15T08:01:45.615Z,7.86
2023-01-15T08:04:18.025Z,7.82
2023-01-15T08:06:47.827Z,7.83
2023-01-15T08:09:20.481Z,7.83
2023-01-15T08:12:17.405Z,7.84
2023-01-15T08:15:02.137Z,7.81
2023-01-15T08:17:31.878Z,7.81
2023-01-15T08:20:14.249Z,7.80
2023-01-15T08:22:44.538Z,7.82
2023-01-15T08:25:16.056Z,7.81
2023-01-15T08:27:45.862Z,7.78
2023-01-15T08:30:18.140Z,7.77
2023-01-15T08:32:48.599Z,7.73
2023-01-15T08:35:21.021Z,7.77
2023-01-15T08:37:50.743Z,7.77
2023-01-15T08:40:21.073Z,7.74
2023-01-15T08:42:50.883Z,7.78
2023-01-15T08:45:20.640Z,7.73
2023-01-15T08:47:50.337Z,7.70
2023-01-15T08:50:22.697Z,7.64
2023-01-15T08:52:52.427Z,7.63
2023-01-15T08:55:22.185Z,7.61
2023-01-15T08:57:52.050Z,7.62
2023-01-15T09:00:24.667Z,7.61
2023-01-15T09:02:54.890Z,7.61
2023-01-15T09:05:28.192Z,7.61
2023-01-15T09:07:58.238Z,7.56
2023-01-15T09:10:28.214Z,7.55
2023-01-15T09:12:58.382Z,7.50
2023-01-15T09:15:28.198Z,7.51
2023-01-15T09:17:58.720Z,7.48
2023-01-15T09:20:32.379Z,7.47
2023-01-15T09:23:06.275Z,7.45
2023-01-15T09:25:36.100Z,7.50
2023-01-15T09:28:11.934Z,7.52
2023-01-15T09:30:41.742Z,7.52
2023-01-15T09:33:11.542Z,7.51
2023-01-15T09:35:45.293Z,7.56
2023-01-15T09:38:16.500Z,7.59
2023-01-15T09:40:53.009Z,7.58
2023-01-15T09:43:33.481Z,7.58
2023-01-15T09:46:09.348Z,7.65
2023-01-15T09:48:53.428Z,7.69
2023-01-15T09:51:36.223Z,7.74
2023-01-15T09:54:26.120Z,7.76
2023-01-15T09:56:58.611Z,7.80
2023-01-15T09:59:35.189Z,7.78
2023-01-15T10:02:16.500Z,7.78
2023-01-15T10:04:50.028Z,7.77
2023-01-15T10:07:28.262Z,7.80
2023-01-15T10:10:04.465Z,7.85
2023-01-15T10:12:39.999Z,7.90
2023-01-15T10:15:22.623Z,7.90
2023-01-15T10:17:54.130Z,7.91
2023-01-15T10:20:51.353Z,7.87
2023-01-15T10:23:48.241Z,7.89
2023-01-15T10:26:35.662Z,7.96
2023-01-15T10:29:13.575Z,8.04
2023-01-15T10:31:53.116Z,8.06
2023-01-15T10:34:37.195Z,8.15
2023-01-15T10:37:13.009Z,8.18
2023-01-15T10:39:55.907Z,8.17
2023-01-15T10:42:40.786Z,8.20
2023-01-15T10:45:18.515Z,8.27
2023-01-15T10:48:02.521Z,8.24
2023-01-15T10:50:32.366Z,8.25
2023-01-15T10:53:09.240Z,8.24
2023-01-15T10:55:45.804Z,8.25
2023-01-15T10:58:19.917Z,8.26
2023-01-15T11:00:56.501Z,8.28
2023-01-15T11:03:37.539Z,8.29
2023-01-15T11:06:09.645Z,8.31
2023-01-15T11:09:08.061Z,8.34
2023-01-15T11:12:04.366Z,8.34
2023-01-15T11:14:51.046Z,8.31
2023-01-15T11:17:33.840Z,8.35
2023-01-15T11:20:04.769Z,8.36
2023-01-15T11:22:34.524Z,8.31
2023-01-15T11:25:04.779Z,8.29
2023-01-15T11:27:39.724Z,8.40
2023-01-15T11:30:32.008Z,8.32
2023-01-15T11:33:06.598Z,8.40
2023-01-15T11:35:37.795Z,8.44
2023-01-15T11:38:11.135Z,8.47
2023-01-15T11:40:41.041Z,8.48
2023-01-15T11:43:38.108Z,8.47
2023-01-15T11:46:20.420Z,8.45
2023-01-15T11:49:08.575Z,8.43
2023-01-15T11:51:42.221Z,8.46
2023-01-15T11:54:18.405Z,8.46
2023-01-15T11:56:50.417Z,8.45
2023-01-15T11:59:23.215Z,8.42
2023-01-15T12:01:59.973Z,8.42
2023-01-15T12:04:36.821Z,8.41
2023-01-15T12:07:09.582Z,8.46
2023-01-15T12:09:58.528Z,8.50
2023-01-15T12:12:37.158Z,8.52
2023-01-15T12:15:33.076Z,8.50
2023-01-15T12:18:22.584Z,8.51
2023-01-15T12:21:05.159Z,8.50
2023-01-15T12:23:46.615Z,8.49
2023-01-15T12:26:27.492Z,8.43
2023-01-15T12:29:05.390Z,8.47
2023-01-15T12:31:46.750Z,8.47
2023-01-15T12:34:24.361Z,8.55
2023-01-15T12:37:06.951Z,8.52
2023-01-15T12:39:43.220Z,8.50
2023-01-15T12:42:31.127Z,8.51
2023-01-15T12:45:08.478Z,8.40
2023-01-15T12:47:47.126Z,8.41
2023-01-15T12:50:31.992Z,8.41
2023-01-15T12:53:11.042Z,8.45
2023-01-15T12:55:45.171Z,8.49
2023-01-15T12:58:27.599Z,8.53
2023-01-15T13:01:07.245Z,8.53
2023-01-15T13:03:53.135Z,8.52
2023-01-15T13:06:28.185Z,8.58
2023-01-15T13:09:05.386Z,8.61
2023-01-15T13:11:35.929Z,8.65
2023-01-15T13:14:05.825Z,8.63
2023-01-15T13:16:44.624Z,8.61
2023-01-15T13:19:31.228Z,8.60
2023-01-15T13:22:05.200Z,8.49
2023-01-15T13:24:54.323Z,8.48
2023-01-15T13:27:36.333Z,8.53
2023-01-15T13:30:20.827Z,8.48
2023-01-15T13:32:56.727Z,8.49
2023-01-15T13:35:37.722Z,8.49
2023-01-15T13:38:14.461Z,8.55
2023-01-15T13:40:50.559Z,8.55
2023-01-15T13:43:33.073Z,8.45
2023-01-15T13:46:04.406Z,8.47
2023-01-15T13:48:46.299Z,8.53
2023-01-15T13:51:37.567Z,8.48
2023-01-15T13:54:12.676Z,8.51
2023-01-15T13:56:44.046Z,8.55
2023-01-15T13:59:38.231Z,8.51
2023-01-15T14:02:26.372Z,8.60
2023-01-15T14:04:56.547Z,8.63
2023-01-15T14:07:38.708Z,8.62
2023-01-15T14:10:23.939Z,8.66
2023-01-15T14:13:07.673Z,8.68
2023-01-15T14:15:44.525Z,8.63
2023-01-15T14:18:26.685Z,8.69
2023-01-15T14:21:10.595Z,8.61
2023-01-15T14:24:14.406Z,8.57
2023-01-15T14:26:53.967Z,8.61
2023-01-15T14:29:51.013Z,8.59
2023-01-15T14:32:34.068Z,8.62
2023-01-15T14:35:05.883Z,8.63
2023-01-15T14:37:46.559Z,8.59
2023-01-15T14:40:26.510Z,8.57
2023-01-15T14:43:05.613Z,8.59
2023-01-15T14:45:41.872Z,8.57
2023-01-15T14:48:22.247Z,8.53
2023-01-15T14:50:54.243Z,8.54
2023-01-15T14:53:38.494Z,8.52
2023-01-15T14:56:21.390Z,8.59
2023-01-15T14:58:58.731Z,8.62
2023-01-15T15:01:37.581Z,8.64
2023-01-15T15:04:25.211Z,8.64
2023-01-15T15:06:58.360Z,8.64
2023-01-15T15:09:37.731Z,8.61
2023-01-15T15:12:28.395Z,8.61
2023-01-15T15:15:05.662Z,8.62
2023-01-15T15:17:42.984Z,8.61
2023-01-15T15:20:32.019Z,8.57
2023-01-15T15:23:07.644Z,8.59
2023-01-15T15:25:42.943Z,8.55
2023-01-15T15:28:15.419Z,8.55
2023-01-15T15:30:48.073Z,8.52
2023-01-15T15:33:22.547Z,8.55
2023-01-15T15:35:55.381Z,8.56
2023-01-15T15:38:27.006Z,8.50
2023-01-15T15:40:59.610Z,8.51
2023-01-15T15:43:54.859Z,8.54
2023-01-15T15:46:46.473Z,8.53
2023-01-15T15:49:16.830Z,8.57
2023-01-15T15:51:49.638Z,8.57
2023-01-15T15:54:21.783Z,8.63
2023-01-15T15:56:56.119Z,8.61
2023-01-15T15:59:36.976Z,8.54
2023-01-15T16:02:21.671Z,8.51
2023-01-15T16:04:53.305Z,8.52
2023-01-15T16:07:28.096Z,8.53
2023-01-15T16:10:01.630Z,8.51
2023-01-15T16:12:34.427Z,8.48
2023-01-15T16:15:08.735Z,8.46
2023-01-15T16:17:42.092Z,8.40
2023-01-15T16:20:16.927Z,8.43
2023-01-15T16:22:58.232Z,8.45
2023-01-15T16:25:31.521Z,8.42
2023-01-15T16:28:02.260Z,8.37
2023-01-15T16:30:36.521Z,8.37
2023-01-15T16:33:09.355Z,8.40
2023-01-15T16:35:39.879Z,8.33
2023-01-15T16:38:12.960Z,8.35
2023-01-15T16:40:47.001Z,8.41
2023-01-15T16:43:22.128Z,8.41
2023-01-15T16:46:08.952Z,8.39
2023-01-15T16:48:48.678Z,8.42
2023-01-15T16:51:34.597Z,8.36
2023-01-15T16:54:06.179Z,8.42
2023-01-15T16:56:56.965Z,8.38
2023-01-15T16:59:56.603Z,8.39
2023-01-15T17:02:37.081Z,8.39
2023-01-15T17:05:18.422Z,8.38
2023-01-15T17:08:00.311Z,8.38
2023-01-15T17:10:38.038Z,8.35
2023-01-15T17:13:34.123Z,8.35
2023-01-15T17:16:29.331Z,8.30
2023-01-15T17:22:07.255Z,8.33
2023-01-15T17:24:49.385Z,8.31
2023-01-15T17:27:22.449Z,8.36
2023-01-15T17:30:09.133Z,8.36
2023-01-15T17:32:46.760Z,8.36
2023-01-15T17:35:33.217Z,8.34
2023-01-15T17:38:23.780Z,8.34
2023-01-15T17:41:01.530Z,8.36
2023-01-15T17:44:00.235Z,8.33
2023-01-15T17:46:40.922Z,8.33
2023-01-15T17:49:18.517Z,8.25
2023-01-15T17:51:56.805Z,8.31
2023-01-15T17:54:46.743Z,8.27
2023-01-15T17:57:35.500Z,8.26
2023-01-15T18:00:21.038Z,8.26
2023-01-15T18:03:17.277Z,8.22
2023-01-15T18:06:27.940Z,8.10
2023-01-15T18:09:04.428Z,8.20
2023-01-15T18:11:34.523Z,8.16
2023-01-15T18:14:05.611Z,8.13
2023-01-15T18:16:35.558Z,8.13
2023-01-15T18:19:18.366Z,8.12
2023-01-15T18:21:50.549Z,8.08
2023-01-15T18:24:24.942Z,8.15
2023-01-15T18:26:56.511Z,8.17
2023-01-15T18:29:28.509Z,8.16
2023-01-15T18:31:59.823Z,8.19
2023-01-15T18:34:29.841Z,8.24
2023-01-15T18:37:01.781Z,8.22
2023-01-15T18:39:40.194Z,8.24
2023-01-15T18:42:22.693Z,8.22
2023-01-15T18:45:05.602Z,8.18
2023-01-15T18:47:35.469Z,8.14
2023-01-15T18:50:07.378Z,8.14
2023-01-15T18:52:49.824Z,8.10
2023-01-15T18:55:24.205Z,8.05
2023-01-15T18:57:54.180Z,8.06
2023-01-15T19:00:25.571Z,8.08
2023-01-15T19:02:56.016Z,8.04
2023-01-15T19:05:26.479Z,8.05
2023-01-15T19:07:56.464Z,8.03
2023-01-15T19:10:29.292Z,8.04
2023-01-15T19:13:02.288Z,8.04
2023-01-15T19:15:44.542Z,8.00
2023-01-15T19:18:26.960Z,8.03
2023-01-15T19:20:57.096Z,8.07
2023-01-15T19:23:26.849Z,8.08
2023-01-15T19:25:59.823Z,8.10
2023-01-15T19:28:36.497Z,8.11
2023-01-15T19:31:22.735Z,8.10
2023-01-15T19:34:13.280Z,8.11
2023-01-15T19:36:49.005Z,8.09
2023-01-15T19:39:19.337Z,8.05
2023-01-15T19:42:06.522Z,8.04
2023-01-15T19:44:48.761Z,8.00
2023-01-15T19:47:41.696Z,7.97
2023-01-15T19:50:24.168Z,7.97
2023-01-15T19:52:55.539Z,7.99
2023-01-15T19:55:27.622Z,7.92
2023-01-15T19:58:06.757Z,7.96
2023-01-15T20:00:39.024Z,7.99
2023-01-15T20:03:10.433Z,8.00
2023-01-15T20:05:41.882Z,7.99
2023-01-15T20:08:13.178Z,7.96
2023-01-15T20:10:45.192Z,7.96
2023-01-15T20:13:32.596Z,7.97
2023-01-15T20:16:09.325Z,7.92
2023-01-15T20:18:39.627Z,7.99
2023-01-15T20:21:12.329Z,8.03
2023-01-15T20:23:42.134Z,8.03
2023-01-15T20:26:15.171Z,8.06
2023-01-15T20:28:48.126Z,8.04
2023-01-15T20:31:18.722Z,8.05
2023-01-15T20:33:48.839Z,7.99
2023-01-15T20:36:22.135Z,7.92
2023-01-15T20:38:52.140Z,7.93
2023-01-15T20:41:34.396Z,7.88
2023-01-15T20:44:19.367Z,7.83
2023-01-15T20:46:52.216Z,7.79
2023-01-15T20:49:28.575Z,7.78
2023-01-15T20:52:02.649Z,7.80
2023-01-15T20:54:33.035Z,7.73
2023-01-15T20:57:02.801Z,7.76
2023-01-15T20:59:37.072Z,7.71
2023-01-15T21:02:07.474Z,7.78
2023-01-15T21:04:37.404Z,7.82
2023-01-15T21:07:08.526Z,7.81
2023-01-15T21:09:38.305Z,7.86
2023-01-15T21:12:08.487Z,7.88
2023-01-15T21:14:40.683Z,7.82
2023-01-15T21:17:21.608Z,7.83
2023-01-15T21:20:08.564Z,7.81
2023-01-15T21:22:44.531Z,7.83
2023-01-15T21:25:27.244Z,7.77
2023-01-15T21:28:08.103Z,7.71
2023-01-15T21:30:45.791Z,7.74
2023-01-15T21:33:40.752Z,7.75
2023-01-15T21:36:26.341Z,7.70
2023-01-15T21:39:03.872Z,7.75
2023-01-15T21:41:52.166Z,7.76
2023-01-15T21:44:45.536Z,7.73
2023-01-15T21:47:21.094Z,7.77
2023-01-15T21:49:55.409Z,7.73
2023-01-15T21:52:30.140Z,7.72
2023-01-15T21:55:21.901Z,7.72
2023-01-15T21:58:14.814Z,7.74
2023-01-15T22:00:46.890Z,7.77
2023-01-15T22:03:22.897Z,7.77
2023-01-15T22:06:01.820Z,7.71
2023-01-15T22:08:47.221Z,7.68
2023-01-15T22:11:44.084Z,7.66
2023-01-15T22:14:17.338Z,7.60
2023-01-15T22:16:51.060Z,7.57
2023-01-15T22:19:36.979Z,7.48
2023-01-15T22:22:20.866Z,7.47
2023-01-15T22:25:22.043Z,7.49
2023-01-15T22:28:23.665Z,7.40
2023-01-15T22:30:53.535Z,7.44
2023-01-15T22:33:23.408Z,7.43
2023-01-15T22:36:02.467Z,7.42
2023-01-15T22:38:32.981Z,7.42
2023-01-15T22:41:02.740Z,7.42
2023-01-15T22:43:33.010Z,7.45
2023-01-15T22:46:11.440Z,7.42
2023-01-15T22:48:41.637Z,7.44
2023-01-15T22:51:14.072Z,7.49
2023-01-15T22:53:43.910Z,7.51
2023-01-15T22:56:13.870Z,7.52
2023-01-15T22:58:44.391Z,7.49
2023-01-15T23:01:14.467Z,7.45
2023-01-15T23:03:44.465Z,7.47
2023-01-15T23:06:18.795Z,7.48
2023-01-15T23:08:49.198Z,7.47
2023-01-15T23:11:19.435Z,7.49
2023-01-15T23:13:49.184Z,7.44
2023-01-15T23:16:19.075Z,7.43
2023-01-15T23:18:50.640Z,7.44
2023-01-15T23:21:25.526Z,7.45
2023-01-15T23:23:58.936Z,7.41
2023-01-15T23:26:33.706Z,7.33
2023-01-15T23:29:04.465Z,7.26
2023-01-15T23:31:34.238Z,7.36
2023-01-15T23:34:04.382Z,7.35
2023-01-15T23:36:38.479Z,7.31
2023-01-15T23:39:10.598Z,7.30
2023-01-15T23:41:52.740Z,7.33
2023-01-15T23:44:36.367Z,7.33
2023-01-15T23:47:12.079Z,7.35
2023-01-15T23:49:41.836Z,7.40
2023-01-15T23:52:14.631Z,7.45
2023-01-15T23:54:44.313Z,7.38
2023-01-15T23:57:14.246Z,7.36
2023-01-15T23:59:44.041Z,7.41
